sensor_id;sensor_type;location;lat;lon;timestamp;P1;durP1;ratioP1;P2;durP2;ratioP2
25854;SDS011;13680;49.936;11.344;2023-03-05T00:01:14;38.45;;;17.38;;
25854;SDS011;13680;49.936;11.344;2023-03-05T00:03:42;42.17;;;17.60;;
25854;SDS011;13680;49.936;11.344;2023-03-05T00:06:08;43.08;;;18.02;;
25854;SDS011;13680;49.936;11.344;2023-03-05T00:08:33;39.50;;;17.48;;
25854;SDS011;13680;49.936;11.344;2023-03-05T00:11:06;43.05;;;17.48;;
25854;SDS011;13680;49.936;11.344;2023-03-05T00:13:34;44.42;;;17.05;;
25854;SDS011;13680;49.936;11.344;2023-03-05T00:16:03;37.78;;;16.27;;
25854;SDS011;13680;49.936;11.344;2023-03-05T00:18:30;53.10;;;18.35;;
25854;SDS011;13680;49.936;11.344;2023-03-05T00:20:56;46.17;;;19.15;;
25854;SDS011;13680;49.936;11.344;2023-03-05T00:23:21;36.42;;;16.90;;
25854;SDS011;13680;49.936;11.344;2023-03-05T00:25:46;44.72;;;16.75;;
25854;SDS011;13680;49.936;11.344;2023-03-05T00:28:12;39.30;;;16.88;;
25854;SDS011;13680;49.936;11.344;2023-03-05T00:30:37;42.22;;;16.52;;
25854;SDS011;13680;49.936;11.344;2023-03-05T00:33:03;39.08;;;16.75;;
25854;SDS011;13680;49.936;11.344;2023-03-05T00:35:28;39.10;;;16.45;;
25854;SDS011;13680;49.936;11.344;2023-03-05T00:37:54;39.50;;;17.30;;
25854;SDS011;13680;49.936;11.344;2023-03-05T00:40:19;37.13;;;15.98;;
25854;SDS011;13680;49.936;11.344;2023-03-05T00:42:45;35.28;;;15.90;;
25854;SDS011;13680;49.936;11.344;2023-03-05T00:45:10;45.30;;;16.73;;
25854;SDS011;13680;49.936;11.344;2023-03-05T00:47:36;43.22;;;16.40;;
25854;SDS011;13680;49.936;11.344;2023-03-05T00:50:02;38.83;;;16.27;;
25854;SDS011;13680;49.936;11.344;2023-03-05T00:52:29;37.60;;;14.98;;
25854;SDS011;13680;49.936;11.344;2023-03-05T00:54:54;38.10;;;15.15;;
25854;SDS011;13680;49.936;11.344;2023-03-05T00:57:20;37.42;;;14.45;;
25854;SDS011;13680;49.936;11.344;2023-03-05T00:59:45;34.75;;;13.57;;
25854;SDS011;13680;49.936;11.344;2023-03-05T01:02:11;37.47;;;12.90;;
25854;SDS011;13680;49.936;11.344;2023-03-05T01:04:36;38.40;;;13.38;;
25854;SDS011;13680;49.936;11.344;2023-03-05T01:07:02;32.50;;;12.77;;
25854;SDS011;13680;49.936;11.344;2023-03-05T01:09:27;31.92;;;11.75;;
25854;SDS011;13680;49.936;11.344;2023-03-05T01:11:53;28.85;;;11.35;;
25854;SDS011;13680;49.936;11.344;2023-03-05T01:14:19;25.45;;;10.48;;
25854;SDS011;13680;49.936;11.344;2023-03-05T01:16:44;32.45;;;10.55;;
25854;SDS011;13680;49.936;11.344;2023-03-05T01:19:10;21.52;;;9.75;;
25854;SDS011;13680;49.936;11.344;2023-03-05T01:21:36;21.40;;;9.07;;
25854;SDS011;13680;49.936;11.344;2023-03-05T01:24:02;23.85;;;9.93;;
25854;SDS011;13680;49.936;11.344;2023-03-05T01:26:28;25.88;;;8.30;;
25854;SDS011;13680;49.936;11.344;2023-03-05T01:28:53;19.25;;;8.07;;
25854;SDS011;13680;49.936;11.344;2023-03-05T01:31:19;18.17;;;7.28;;
25854;SDS011;13680;49.936;11.344;2023-03-05T01:33:44;17.50;;;7.88;;
25854;SDS011;13680;49.936;11.344;2023-03-05T01:36:11;20.48;;;7.03;;
25854;SDS011;13680;49.936;11.344;2023-03-05T01:38:40;16.30;;;6.65;;
25854;SDS011;13680;49.936;11.344;2023-03-05T01:41:07;13.85;;;5.43;;
25854;SDS011;13680;49.936;11.344;2023-03-05T01:43:33;18.63;;;5.70;;
25854;SDS011;13680;49.936;11.344;2023-03-05T01:49:46;10.20;;;4.53;;
25854;SDS011;13680;49.936;11.344;2023-03-05T01:51:59;19.25;;;4.47;;
25854;SDS011;13680;49.936;11.344;2023-03-05T01:54:30;8.73;;;3.33;;
25854;SDS011;13680;49.936;11.344;2023-03-05T01:57:00;12.80;;;3.83;;
25854;SDS011;13680;49.936;11.344;2023-03-05T01:59:31;13.25;;;3.58;;
25854;SDS011;13680;49.936;11.344;2023-03-05T02:01:57;11.63;;;3.60;;
25854;SDS011;13680;49.936;11.344;2023-03-05T02:04:25;11.57;;;3.28;;
25854;SDS011;13680;49.936;11.344;2023-03-05T02:06:55;8.23;;;2.83;;
25854;SDS011;13680;49.936;11.344;2023-03-05T02:09:20;10.55;;;2.50;;
25854;SDS011;13680;49.936;11.344;2023-03-05T02:11:49;13.52;;;2.83;;
25854;SDS011;13680;49.936;11.344;2023-03-05T02:14:14;8.68;;;2.50;;
25854;SDS011;13680;49.936;11.344;2023-03-05T02:16:40;9.93;;;2.60;;
25854;SDS011;13680;49.936;11.344;2023-03-05T02:19:08;7.55;;;2.38;;
25854;SDS011;13680;49.936;11.344;2023-03-05T02:21:36;9.07;;;2.30;;
25854;SDS011;13680;49.936;11.344;2023-03-05T02:24:14;9.43;;;2.65;;
25854;SDS011;13680;49.936;11.344;2023-03-05T02:26:42;4.90;;;2.20;;
25854;SDS011;13680;49.936;11.344;2023-03-05T02:29:09;5.60;;;2.00;;
25854;SDS011;13680;49.936;11.344;2023-03-05T02:31:38;5.90;;;2.05;;
25854;SDS011;13680;49.936;11.344;2023-03-05T02:34:04;8.65;;;2.38;;
25854;SDS011;13680;49.936;11.344;2023-03-05T02:36:30;11.50;;;2.35;;
25854;SDS011;13680;49.936;11.344;2023-03-05T02:38:55;8.00;;;2.15;;
25854;SDS011;13680;49.936;11.344;2023-03-05T02:41:21;7.47;;;1.90;;
25854;SDS011;13680;49.936;11.344;2023-03-05T02:43:48;5.03;;;2.00;;
25854;SDS011;13680;49.936;11.344;2023-03-05T02:46:13;7.00;;;1.98;;
25854;SDS011;13680;49.936;11.344;2023-03-05T02:48:38;8.20;;;2.17;;
25854;SDS011;13680;49.936;11.344;2023-03-05T02:51:04;8.10;;;2.65;;
25854;SDS011;13680;49.936;11.344;2023-03-05T02:53:31;8.68;;;1.92;;
25854;SDS011;13680;49.936;11.344;2023-03-05T02:55:56;9.73;;;1.70;;
25854;SDS011;13680;49.936;11.344;2023-03-05T02:58:22;7.47;;;2.20;;
25854;SDS011;13680;49.936;11.344;2023-03-05T03:00:47;7.65;;;2.00;;
25854;SDS011;13680;49.936;11.344;2023-03-05T03:03:13;4.38;;;1.95;;
25854;SDS011;13680;49.936;11.344;2023-03-05T03:05:38;9.52;;;2.05;;
25854;SDS011;13680;49.936;11.344;2023-03-05T03:08:04;6.50;;;2.30;;
25854;SDS011;13680;49.936;11.344;2023-03-05T03:10:30;3.67;;;1.95;;
25854;SDS011;13680;49.936;11.344;2023-03-05T03:12:55;10.13;;;1.85;;
25854;SDS011;13680;49.936;11.344;2023-03-05T03:15:21;7.30;;;1.70;;
25854;SDS011;13680;49.936;11.344;2023-03-05T03:17:46;5.75;;;1.45;;
25854;SDS011;13680;49.936;11.344;2023-03-05T03:20:12;9.32;;;1.85;;
25854;SDS011;13680;49.936;11.344;2023-03-05T03:22:40;9.20;;;2.15;;
25854;SDS011;13680;49.936;11.344;2023-03-05T03:25:07;10.43;;;1.67;;
25854;SDS011;13680;49.936;11.344;2023-03-05T03:27:33;11.57;;;2.00;;
25854;SDS011;13680;49.936;11.344;2023-03-05T03:29:58;5.18;;;1.70;;
25854;SDS011;13680;49.936;11.344;2023-03-05T03:32:28;4.40;;;1.45;;
25854;SDS011;13680;49.936;11.344;2023-03-05T03:34:54;6.13;;;1.65;;
25854;SDS011;13680;49.936;11.344;2023-03-05T03:37:19;7.50;;;1.90;;
25854;SDS011;13680;49.936;11.344;2023-03-05T03:39:44;8.73;;;2.05;;
25854;SDS011;13680;49.936;11.344;2023-03-05T03:42:10;4.25;;;1.55;;
25854;SDS011;13680;49.936;11.344;2023-03-05T03:44:35;3.90;;;1.58;;
25854;SDS011;13680;49.936;11.344;2023-03-05T03:47:00;8.40;;;1.77;;
25854;SDS011;13680;49.936;11.344;2023-03-05T03:49:26;13.23;;;2.28;;
25854;SDS011;13680;49.936;11.344;2023-03-05T03:51:52;6.68;;;1.50;;
25854;SDS011;13680;49.936;11.344;2023-03-05T03:54:22;7.65;;;1.70;;
25854;SDS011;13680;49.936;11.344;2023-03-05T03:56:48;10.75;;;1.70;;
25854;SDS011;13680;49.936;11.344;2023-03-05T03:59:13;4.00;;;1.48;;
25854;SDS011;13680;49.936;11.344;2023-03-05T04:01:39;4.95;;;1.65;;
25854;SDS011;13680;49.936;11.344;2023-03-05T04:04:04;18.83;;;2.42;;
25854;SDS011;13680;49.936;11.344;2023-03-05T04:06:30;7.00;;;1.98;;
25854;SDS011;13680;49.936;11.344;2023-03-05T04:08:56;8.30;;;2.00;;
25854;SDS011;13680;49.936;11.344;2023-03-05T04:11:22;4.75;;;1.95;;
25854;SDS011;13680;49.936;11.344;2023-03-05T04:13:47;4.97;;;1.73;;
25854;SDS011;13680;49.936;11.344;2023-03-05T04:16:14;6.72;;;2.00;;
25854;SDS011;13680;49.936;11.344;2023-03-05T04:18:40;9.73;;;2.05;;
25854;SDS011;13680;49.936;11.344;2023-03-05T04:21:06;8.25;;;2.17;;
25854;SDS011;13680;49.936;11.344;2023-03-05T04:23:31;9.13;;;1.65;;
25854;SDS011;13680;49.936;11.344;2023-03-05T04:25:57;7.70;;;1.70;;
25854;SDS011;13680;49.936;11.344;2023-03-05T04:28:22;6.20;;;1.48;;
25854;SDS011;13680;49.936;11.344;2023-03-05T04:30:48;3.97;;;1.58;;
25854;SDS011;13680;49.936;11.344;2023-03-05T04:33:13;6.60;;;1.85;;
25854;SDS011;13680;49.936;11.344;2023-03-05T04:35:38;5.80;;;1.38;;
25854;SDS011;13680;49.936;11.344;2023-03-05T04:38:04;5.45;;;1.35;;
25854;SDS011;13680;49.936;11.344;2023-03-05T04:40:29;8.45;;;2.10;;
25854;SDS011;13680;49.936;11.344;2023-03-05T04:42:54;9.02;;;1.80;;
25854;SDS011;13680;49.936;11.344;2023-03-05T04:45:20;10.68;;;2.13;;
25854;SDS011;13680;49.936;11.344;2023-03-05T04:47:45;4.80;;;1.50;;
25854;SDS011;13680;49.936;11.344;2023-03-05T04:50:11;6.22;;;1.45;;
25854;SDS011;13680;49.936;11.344;2023-03-05T04:52:38;1.48;;;1.10;;
25854;SDS011;13680;49.936;11.344;2023-03-05T04:55:05;5.28;;;1.50;;
25854;SDS011;13680;49.936;11.344;2023-03-05T04:57:30;2.90;;;1.50;;
25854;SDS011;13680;49.936;11.344;2023-03-05T04:59:56;8.43;;;1.85;;
25854;SDS011;13680;49.936;11.344;2023-03-05T05:02:21;7.45;;;2.00;;
25854;SDS011;13680;49.936;11.344;2023-03-05T05:04:47;5.13;;;1.75;;
25854;SDS011;13680;49.936;11.344;2023-03-05T05:07:12;2.67;;;1.33;;
25854;SDS011;13680;49.936;11.344;2023-03-05T05:09:38;7.40;;;1.50;;
25854;SDS011;13680;49.936;11.344;2023-03-05T05:12:05;5.90;;;1.30;;
25854;SDS011;13680;49.936;11.344;2023-03-05T05:14:32;1.83;;;1.30;;
25854;SDS011;13680;49.936;11.344;2023-03-05T05:16:58;8.35;;;1.67;;
25854;SDS011;13680;49.936;11.344;2023-03-05T05:19:24;7.70;;;1.60;;
25854;SDS011;13680;49.936;11.344;2023-03-05T05:21:49;3.40;;;1.20;;
25854;SDS011;13680;49.936;11.344;2023-03-05T05:24:15;4.20;;;1.10;;
25854;SDS011;13680;49.936;11.344;2023-03-05T05:26:40;5.40;;;1.60;;
25854;SDS011;13680;49.936;11.344;2023-03-05T05:29:05;3.30;;;1.38;;
25854;SDS011;13680;49.936;11.344;2023-03-05T05:31:31;6.88;;;1.85;;
25854;SDS011;13680;49.936;11.344;2023-03-05T05:33:56;4.43;;;1.42;;
25854;SDS011;13680;49.936;11.344;2023-03-05T05:36:22;4.05;;;1.58;;
25854;SDS011;13680;49.936;11.344;2023-03-05T05:38:48;3.92;;;1.38;;
25854;SDS011;13680;49.936;11.344;2023-03-05T05:41:14;3.40;;;1.27;;
25854;SDS011;13680;49.936;11.344;2023-03-05T05:43:41;6.65;;;1.75;;
25854;SDS011;13680;49.936;11.344;2023-03-05T05:46:07;5.30;;;1.48;;
25854;SDS011;13680;49.936;11.344;2023-03-05T05:48:36;5.75;;;1.48;;
25854;SDS011;13680;49.936;11.344;2023-03-05T05:51:05;4.43;;;1.50;;
25854;SDS011;13680;49.936;11.344;2023-03-05T05:53:32;5.90;;;1.13;;
25854;SDS011;13680;49.936;11.344;2023-03-05T05:55:58;7.20;;;1.40;;
25854;SDS011;13680;49.936;11.344;2023-03-05T05:58:23;3.72;;;1.75;;
25854;SDS011;13680;49.936;11.344;2023-03-05T06:00:48;4.38;;;1.67;;
25854;SDS011;13680;49.936;11.344;2023-03-05T06:03:14;8.57;;;1.92;;
25854;SDS011;13680;49.936;11.344;2023-03-05T06:05:40;4.25;;;2.17;;
25854;SDS011;13680;49.936;11.344;2023-03-05T06:08:06;4.50;;;1.58;;
25854;SDS011;13680;49.936;11.344;2023-03-05T06:10:32;6.25;;;1.83;;
25854;SDS011;13680;49.936;11.344;2023-03-05T06:12:57;5.72;;;2.05;;
25854;SDS011;13680;49.936;11.344;2023-03-05T06:15:23;6.00;;;2.92;;
25854;SDS011;13680;49.936;11.344;2023-03-05T06:17:48;5.05;;;1.73;;
25854;SDS011;13680;49.936;11.344;2023-03-05T06:20:13;5.95;;;2.17;;
25854;SDS011;13680;49.936;11.344;2023-03-05T06:22:39;2.85;;;1.13;;
25854;SDS011;13680;49.936;11.344;2023-03-05T06:25:05;5.65;;;1.67;;
25854;SDS011;13680;49.936;11.344;2023-03-05T06:27:33;6.40;;;2.35;;
25854;SDS011;13680;49.936;11.344;2023-03-05T06:29:59;5.75;;;1.98;;
25854;SDS011;13680;49.936;11.344;2023-03-05T06:32:24;5.50;;;1.70;;
25854;SDS011;13680;49.936;11.344;2023-03-05T06:34:50;5.13;;;1.52;;
25854;SDS011;13680;49.936;11.344;2023-03-05T06:37:15;11.25;;;2.17;;
25854;SDS011;13680;49.936;11.344;2023-03-05T06:39:40;7.53;;;2.05;;
25854;SDS011;13680;49.936;11.344;2023-03-05T06:42:06;5.47;;;1.60;;
25854;SDS011;13680;49.936;11.344;2023-03-05T06:44:31;3.72;;;1.90;;
25854;SDS011;13680;49.936;11.344;2023-03-05T06:46:57;5.43;;;2.10;;
25854;SDS011;13680;49.936;11.344;2023-03-05T06:49:22;6.25;;;2.03;;
25854;SDS011;13680;49.936;11.344;2023-03-05T06:51:47;8.07;;;1.90;;
25854;SDS011;13680;49.936;11.344;2023-03-05T06:54:14;4.20;;;1.67;;
25854;SDS011;13680;49.936;11.344;2023-03-05T06:56:41;7.90;;;1.70;;
25854;SDS011;13680;49.936;11.344;2023-03-05T06:59:09;5.03;;;2.03;;
25854;SDS011;13680;49.936;11.344;2023-03-05T07:01:35;5.50;;;1.52;;
25854;SDS011;13680;49.936;11.344;2023-03-05T07:04:01;4.97;;;1.55;;
25854;SDS011;13680;49.936;11.344;2023-03-05T07:06:27;4.53;;;1.10;;
25854;SDS011;13680;49.936;11.344;2023-03-05T07:08:55;9.27;;;1.92;;
25854;SDS011;13680;49.936;11.344;2023-03-05T07:11:22;5.53;;;1.45;;
25854;SDS011;13680;49.936;11.344;2023-03-05T07:13:48;5.55;;;2.03;;
25854;SDS011;13680;49.936;11.344;2023-03-05T07:16:21;6.00;;;1.60;;
25854;SDS011;13680;49.936;11.344;2023-03-05T07:18:48;7.82;;;1.58;;
25854;SDS011;13680;49.936;11.344;2023-03-05T07:21:16;7.30;;;2.25;;
25854;SDS011;13680;49.936;11.344;2023-03-05T07:23:43;4.43;;;1.52;;
25854;SDS011;13680;49.936;11.344;2023-03-05T07:26:09;6.75;;;1.90;;
25854;SDS011;13680;49.936;11.344;2023-03-05T07:28:34;5.82;;;2.00;;
25854;SDS011;13680;49.936;11.344;2023-03-05T07:31:04;7.45;;;2.13;;
25854;SDS011;13680;49.936;11.344;2023-03-05T07:33:31;4.32;;;1.23;;
25854;SDS011;13680;49.936;11.344;2023-03-05T07:35:59;4.93;;;1.48;;
25854;SDS011;13680;49.936;11.344;2023-03-05T07:38:25;5.95;;;1.98;;
25854;SDS011;13680;49.936;11.344;2023-03-05T07:40:50;3.78;;;1.58;;
25854;SDS011;13680;49.936;11.344;2023-03-05T07:43:16;11.38;;;1.77;;
25854;SDS011;13680;49.936;11.344;2023-03-05T07:45:42;4.43;;;1.65;;
25854;SDS011;13680;49.936;11.344;2023-03-05T07:48:11;4.88;;;1.67;;
25854;SDS011;13680;49.936;11.344;2023-03-05T07:50:38;5.30;;;1.55;;
25854;SDS011;13680;49.936;11.344;2023-03-05T07:53:04;6.43;;;1.88;;
25854;SDS011;13680;49.936;11.344;2023-03-05T07:55:29;4.60;;;1.70;;
25854;SDS011;13680;49.936;11.344;2023-03-05T07:57:54;4.90;;;2.05;;
25854;SDS011;13680;49.936;11.344;2023-03-05T08:00:20;5.10;;;1.50;;
25854;SDS011;13680;49.936;11.344;2023-03-05T08:02:45;5.22;;;1.55;;
25854;SDS011;13680;49.936;11.344;2023-03-05T08:05:11;6.03;;;1.67;;
25854;SDS011;13680;49.936;11.344;2023-03-05T08:07:37;4.50;;;1.50;;
25854;SDS011;13680;49.936;11.344;2023-03-05T08:10:03;7.88;;;1.40;;
25854;SDS011;13680;49.936;11.344;2023-03-05T08:12:29;4.57;;;1.50;;
25854;SDS011;13680;49.936;11.344;2023-03-05T08:14:54;11.32;;;5.25;;
25854;SDS011;13680;49.936;11.344;2023-03-05T08:17:19;5.10;;;1.90;;
25854;SDS011;13680;49.936;11.344;2023-03-05T08:19:45;6.45;;;2.33;;
25854;SDS011;13680;49.936;11.344;2023-03-05T08:22:10;8.45;;;1.80;;
25854;SDS011;13680;49.936;11.344;2023-03-05T08:24:35;4.50;;;1.50;;
25854;SDS011;13680;49.936;11.344;2023-03-05T08:27:01;8.98;;;2.10;;
25854;SDS011;13680;49.936;11.344;2023-03-05T08:29:26;9.15;;;1.95;;
25854;SDS011;13680;49.936;11.344;2023-03-05T08:31:51;3.97;;;1.48;;
25854;SDS011;13680;49.936;11.344;2023-03-05T08:34:18;3.78;;;1.30;;
25854;SDS011;13680;49.936;11.344;2023-03-05T08:36:47;4.13;;;1.23;;
25854;SDS011;13680;49.936;11.344;2023-03-05T08:39:13;4.10;;;1.77;;
25854;SDS011;13680;49.936;11.344;2023-03-05T08:41:38;3.80;;;1.30;;
25854;SDS011;13680;49.936;11.344;2023-03-05T08:44:03;7.50;;;1.35;;
25854;SDS011;13680;49.936;11.344;2023-03-05T08:46:29;3.33;;;1.38;;
25854;SDS011;13680;49.936;11.344;2023-03-05T08:48:54;8.70;;;3.53;;
25854;SDS011;13680;49.936;11.344;2023-03-05T08:51:21;9.27;;;1.40;;
25854;SDS011;13680;49.936;11.344;2023-03-05T08:53:52;4.15;;;1.38;;
25854;SDS011;13680;49.936;11.344;2023-03-05T08:56:19;2.40;;;1.20;;
25854;SDS011;13680;49.936;11.344;2023-03-05T08:58:44;4.93;;;1.20;;
25854;SDS011;13680;49.936;11.344;2023-03-05T09:01:12;4.10;;;1.20;;
25854;SDS011;13680;49.936;11.344;2023-03-05T09:03:38;3.13;;;1.08;;
25854;SDS011;13680;49.936;11.344;2023-03-05T09:06:05;2.35;;;1.13;;
25854;SDS011;13680;49.936;11.344;2023-03-05T09:08:32;3.45;;;1.13;;
25854;SDS011;13680;49.936;11.344;2023-03-05T09:11:00;4.10;;;1.15;;
25854;SDS011;13680;49.936;11.344;2023-03-05T09:13:26;2.75;;;1.30;;
25854;SDS011;13680;49.936;11.344;2023-03-05T09:15:56;3.95;;;1.30;;
25854;SDS011;13680;49.936;11.344;2023-03-05T09:18:24;4.00;;;1.23;;
25854;SDS011;13680;49.936;11.344;2023-03-05T09:20:49;5.10;;;2.55;;
25854;SDS011;13680;49.936;11.344;2023-03-05T09:23:14;5.97;;;1.33;;
25854;SDS011;13680;49.936;11.344;2023-03-05T09:25:40;4.53;;;1.20;;
25854;SDS011;13680;49.936;11.344;2023-03-05T09:28:06;4.07;;;1.17;;
25854;SDS011;13680;49.936;11.344;2023-03-05T09:30:31;3.90;;;1.60;;
25854;SDS011;13680;49.936;11.344;2023-03-05T09:32:59;5.53;;;2.25;;
25854;SDS011;13680;49.936;11.344;2023-03-05T09:35:25;7.78;;;1.38;;
25854;SDS011;13680;49.936;11.344;2023-03-05T09:37:50;2.67;;;1.10;;
25854;SDS011;13680;49.936;11.344;2023-03-05T09:40:17;3.72;;;1.60;;
25854;SDS011;13680;49.936;11.344;2023-03-05T09:45:40;2.67;;;1.10;;
25854;SDS011;13680;49.936;11.344;2023-03-05T09:48:25;3.47;;;1.33;;
25854;SDS011;13680;49.936;11.344;2023-03-05T09:51:25;6.55;;;1.50;;
25854;SDS011;13680;49.936;11.344;2023-03-05T09:53:57;4.78;;;1.25;;
25854;SDS011;13680;49.936;11.344;2023-03-05T09:56:31;6.28;;;1.30;;
25854;SDS011;13680;49.936;11.344;2023-03-05T09:59:03;5.93;;;1.17;;
25854;SDS011;13680;49.936;11.344;2023-03-05T10:01:42;5.10;;;1.58;;
25854;SDS011;13680;49.936;11.344;2023-03-05T10:09:13;2.67;;;0.98;;
25854;SDS011;13680;49.936;11.344;2023-03-05T10:14:52;1.55;;;0.85;;
25854;SDS011;13680;49.936;11.344;2023-03-05T10:20:21;2.25;;;1.10;;
25854;SDS011;13680;49.936;11.344;2023-03-05T10:25:58;2.20;;;0.82;;
25854;SDS011;13680;49.936;11.344;2023-03-05T10:31:17;3.72;;;1.55;;
25854;SDS011;13680;49.936;11.344;2023-03-05T10:39:25;3.58;;;1.10;;
25854;SDS011;13680;49.936;11.344;2023-03-05T10:42:01;2.72;;;1.20;;
25854;SDS011;13680;49.936;11.344;2023-03-05T10:44:54;3.17;;;1.10;;
25854;SDS011;13680;49.936;11.344;2023-03-05T10:47:24;2.65;;;1.05;;
25854;SDS011;13680;49.936;11.344;2023-03-05T10:49:50;3.88;;;0.90;;
25854;SDS011;13680;49.936;11.344;2023-03-05T10:52:32;7.30;;;1.00;;
25854;SDS011;13680;49.936;11.344;2023-03-05T10:55:01;2.85;;;1.15;;
25854;SDS011;13680;49.936;11.344;2023-03-05T10:57:37;3.63;;;1.20;;
25854;SDS011;13680;49.936;11.344;2023-03-05T11:02:53;4.78;;;0.95;;
25854;SDS011;13680;49.936;11.344;2023-03-05T11:05:41;3.55;;;1.33;;
25854;SDS011;13680;49.936;11.344;2023-03-05T11:10:43;3.45;;;1.00;;
25854;SDS011;13680;49.936;11.344;2023-03-05T11:13:20;1.63;;;0.90;;
25854;SDS011;13680;49.936;11.344;2023-03-05T11:15:59;2.50;;;0.80;;
25854;SDS011;13680;49.936;11.344;2023-03-05T11:18:39;4.22;;;1.33;;
25854;SDS011;13680;49.936;11.344;2023-03-05T11:21:10;2.25;;;1.25;;
25854;SDS011;13680;49.936;11.344;2023-03-05T11:24:02;2.70;;;0.93;;
25854;SDS011;13680;49.936;11.344;2023-03-05T11:26:28;1.27;;;1.00;;
25854;SDS011;13680;49.936;11.344;2023-03-05T11:28:55;2.53;;;0.90;;
25854;SDS011;13680;49.936;11.344;2023-03-05T11:31:24;2.10;;;0.90;;
25854;SDS011;13680;49.936;11.344;2023-03-05T11:34:03;3.78;;;0.77;;
25854;SDS011;13680;49.936;11.344;2023-03-05T11:36:34;4.43;;;1.10;;
25854;SDS011;13680;49.936;11.344;2023-03-05T11:41:36;3.40;;;1.02;;
25854;SDS011;13680;49.936;11.344;2023-03-05T11:44:09;3.08;;;1.17;;
25854;SDS011;13680;49.936;11.344;2023-03-05T11:46:48;2.50;;;0.70;;
25854;SDS011;13680;49.936;11.344;2023-03-05T11:49:23;4.97;;;1.08;;
25854;SDS011;13680;49.936;11.344;2023-03-05T11:54:40;2.92;;;1.00;;
25854;SDS011;13680;49.936;11.344;2023-03-05T11:57:14;1.75;;;1.13;;
25854;SDS011;13680;49.936;11.344;2023-03-05T11:59:41;4.05;;;1.10;;
25854;SDS011;13680;49.936;11.344;2023-03-05T12:02:15;2.63;;;1.30;;
25854;SDS011;13680;49.936;11.344;2023-03-05T12:04:43;3.00;;;1.30;;
25854;SDS011;13680;49.936;11.344;2023-03-05T12:07:09;2.05;;;1.02;;
25854;SDS011;13680;49.936;11.344;2023-03-05T12:09:41;4.53;;;1.35;;
25854;SDS011;13680;49.936;11.344;2023-03-05T12:17:43;1.88;;;0.98;;
25854;SDS011;13680;49.936;11.344;2023-03-05T12:20:41;3.33;;;1.05;;
25854;SDS011;13680;49.936;11.344;2023-03-05T12:23:14;8.23;;;1.40;;
25854;SDS011;13680;49.936;11.344;2023-03-05T12:25:49;3.33;;;1.15;;
25854;SDS011;13680;49.936;11.344;2023-03-05T12:33:37;4.05;;;1.33;;
25854;SDS011;13680;49.936;11.344;2023-03-05T12:38:41;3.28;;;1.20;;
25854;SDS011;13680;49.936;11.344;2023-03-05T12:41:31;6.68;;;1.40;;
25854;SDS011;13680;49.936;11.344;2023-03-05T12:46:29;3.50;;;1.38;;
25854;SDS011;13680;49.936;11.344;2023-03-05T12:51:42;3.10;;;1.33;;
25854;SDS011;13680;49.936;11.344;2023-03-05T12:54:21;2.42;;;1.27;;
25854;SDS011;13680;49.936;11.344;2023-03-05T12:56:49;3.72;;;0.95;;
25854;SDS011;13680;49.936;11.344;2023-03-05T12:59:18;2.10;;;0.95;;
25854;SDS011;13680;49.936;11.344;2023-03-05T13:01:50;2.88;;;1.50;;
25854;SDS011;13680;49.936;11.344;2023-03-05T13:09:56;4.32;;;1.00;;
25854;SDS011;13680;49.936;11.344;2023-03-05T13:12:24;4.13;;;1.45;;
25854;SDS011;13680;49.936;11.344;2023-03-05T13:15:04;4.75;;;1.17;;
25854;SDS011;13680;49.936;11.344;2023-03-05T13:17:36;2.35;;;1.33;;
25854;SDS011;13680;49.936;11.344;2023-03-05T13:25:40;4.60;;;1.40;;
25854;SDS011;13680;49.936;11.344;2023-03-05T13:28:09;2.90;;;1.17;;
25854;SDS011;13680;49.936;11.344;2023-03-05T13:30:43;2.38;;;1.00;;
25854;SDS011;13680;49.936;11.344;2023-03-05T13:33:15;3.83;;;1.30;;
25854;SDS011;13680;49.936;11.344;2023-03-05T13:35:43;3.83;;;2.03;;
25854;SDS011;13680;49.936;11.344;2023-03-05T13:38:28;3.45;;;1.08;;
25854;SDS011;13680;49.936;11.344;2023-03-05T13:41:21;3.60;;;1.50;;
25854;SDS011;13680;49.936;11.344;2023-03-05T13:46:29;2.25;;;1.17;;
25854;SDS011;13680;49.936;11.344;2023-03-05T13:51:47;3.38;;;1.08;;
25854;SDS011;13680;49.936;11.344;2023-03-05T13:54:20;2.45;;;1.20;;
25854;SDS011;13680;49.936;11.344;2023-03-05T13:59:25;4.50;;;2.33;;
25854;SDS011;13680;49.936;11.344;2023-03-05T14:01:55;3.72;;;2.13;;
25854;SDS011;13680;49.936;11.344;2023-03-05T14:04:23;4.95;;;1.67;;
25854;SDS011;13680;49.936;11.344;2023-03-05T14:09:23;3.00;;;1.20;;
25854;SDS011;13680;49.936;11.344;2023-03-05T14:14:25;3.17;;;1.30;;
25854;SDS011;13680;49.936;11.344;2023-03-05T14:16:52;2.13;;;1.23;;
25854;SDS011;13680;49.936;11.344;2023-03-05T14:22:01;3.38;;;1.55;;
25854;SDS011;13680;49.936;11.344;2023-03-05T14:24:27;2.55;;;1.02;;
25854;SDS011;13680;49.936;11.344;2023-03-05T14:26:56;1.35;;;0.95;;
25854;SDS011;13680;49.936;11.344;2023-03-05T14:29:29;2.60;;;1.58;;
25854;SDS011;13680;49.936;11.344;2023-03-05T14:31:57;3.47;;;2.05;;
25854;SDS011;13680;49.936;11.344;2023-03-05T14:34:39;4.05;;;1.70;;
25854;SDS011;13680;49.936;11.344;2023-03-05T14:37:13;6.75;;;2.60;;
25854;SDS011;13680;49.936;11.344;2023-03-05T14:40:05;5.50;;;2.35;;
25854;SDS011;13680;49.936;11.344;2023-03-05T14:45:12;8.07;;;2.03;;
25854;SDS011;13680;49.936;11.344;2023-03-05T14:47:40;5.25;;;1.50;;
25854;SDS011;13680;49.936;11.344;2023-03-05T14:50:09;5.18;;;1.30;;
25854;SDS011;13680;49.936;11.344;2023-03-05T14:52:42;4.40;;;1.83;;
25854;SDS011;13680;49.936;11.344;2023-03-05T14:55:15;7.78;;;3.05;;
25854;SDS011;13680;49.936;11.344;2023-03-05T14:57:42;6.30;;;3.28;;
25854;SDS011;13680;49.936;11.344;2023-03-05T15:00:14;3.00;;;1.90;;
25854;SDS011;13680;49.936;11.344;2023-03-05T15:02:44;4.60;;;2.83;;
25854;SDS011;13680;49.936;11.344;2023-03-05T15:05:09;1.92;;;1.33;;
25854;SDS011;13680;49.936;11.344;2023-03-05T15:07:35;12.70;;;4.85;;
25854;SDS011;13680;49.936;11.344;2023-03-05T15:10:01;6.85;;;1.52;;
25854;SDS011;13680;49.936;11.344;2023-03-05T15:12:26;7.05;;;4.03;;
25854;SDS011;13680;49.936;11.344;2023-03-05T15:14:52;3.47;;;1.90;;
25854;SDS011;13680;49.936;11.344;2023-03-05T15:17:20;4.75;;;1.95;;
25854;SDS011;13680;49.936;11.344;2023-03-05T15:19:59;7.07;;;3.00;;
25854;SDS011;13680;49.936;11.344;2023-03-05T15:22:24;4.07;;;1.67;;
25854;SDS011;13680;49.936;11.344;2023-03-05T15:24:50;3.83;;;1.58;;
25854;SDS011;13680;49.936;11.344;2023-03-05T15:27:16;3.13;;;1.77;;
25854;SDS011;13680;49.936;11.344;2023-03-05T15:29:41;4.70;;;2.05;;
25854;SDS011;13680;49.936;11.344;2023-03-05T15:32:06;5.80;;;1.80;;
25854;SDS011;13680;49.936;11.344;2023-03-05T15:34:32;4.75;;;3.20;;
25854;SDS011;13680;49.936;11.344;2023-03-05T15:36:58;7.10;;;2.15;;
25854;SDS011;13680;49.936;11.344;2023-03-05T15:39:24;11.85;;;5.57;;
25854;SDS011;13680;49.936;11.344;2023-03-05T15:41:50;11.65;;;5.82;;
25854;SDS011;13680;49.936;11.344;2023-03-05T15:44:16;26.30;;;7.03;;
25854;SDS011;13680;49.936;11.344;2023-03-05T15:46:42;16.40;;;5.90;;
25854;SDS011;13680;49.936;11.344;2023-03-05T15:49:07;6.50;;;2.03;;
25854;SDS011;13680;49.936;11.344;2023-03-05T15:51:32;4.13;;;1.70;;
25854;SDS011;13680;49.936;11.344;2023-03-05T15:53:58;6.50;;;2.20;;
25854;SDS011;13680;49.936;11.344;2023-03-05T15:56:23;4.22;;;1.55;;
25854;SDS011;13680;49.936;11.344;2023-03-05T15:58:49;7.10;;;1.85;;
25854;SDS011;13680;49.936;11.344;2023-03-05T16:01:14;5.10;;;2.28;;
25854;SDS011;13680;49.936;11.344;2023-03-05T16:03:43;4.15;;;1.90;;